sensor_id;sensor_type;location;lat;lon;timestamp;P1;durP1;ratioP1;P2;durP2;ratioP2
75207;SDS011;63795;55.684;37.864;2023-07-13T00:04:25;2.47;;;0.20;;
75207;SDS011;63795;55.684;37.864;2023-07-13T00:09:26;2.55;;;1.13;;
75207;SDS011;63795;55.684;37.864;2023-07-13T00:14:27;2.25;;;0.47;;
75207;SDS011;63795;55.684;37.864;2023-07-13T00:19:29;4.75;;;0.43;;
75207;SDS011;63795;55.684;37.864;2023-07-13T00:24:29;6.50;;;1.27;;
75207;SDS011;63795;55.684;37.864;2023-07-13T00:29:30;1.02;;;0.22;;
75207;SDS011;63795;55.684;37.864;2023-07-13T00:34:30;2.00;;;0.20;;
75207;SDS011;63795;55.684;37.864;2023-07-13T00:39:31;2.15;;;0.47;;
75207;SDS011;63795;55.684;37.864;2023-07-13T00:44:32;3.08;;;0.90;;
75207;SDS011;63795;55.684;37.864;2023-07-13T00:49:33;3.47;;;2.05;;
75207;SDS011;63795;55.684;37.864;2023-07-13T00:54:38;1.08;;;0.45;;
75207;SDS011;63795;55.684;37.864;2023-07-13T00:59:42;1.10;;;0.32;;
75207;SDS011;63795;55.684;37.864;2023-07-13T01:04:45;1.98;;;0.50;;
75207;SDS011;63795;55.684;37.864;2023-07-13T01:09:45;1.93;;;0.73;;
75207;SDS011;63795;55.684;37.864;2023-07-13T01:14:46;0.98;;;0.38;;
75207;SDS011;63795;55.684;37.864;2023-07-13T01:19:46;2.17;;;1.40;;
75207;SDS011;63795;55.684;37.864;2023-07-13T01:24:47;2.13;;;0.60;;
75207;SDS011;63795;55.684;37.864;2023-07-13T01:29:48;1.27;;;0.45;;
75207;SDS011;63795;55.684;37.864;2023-07-13T01:34:50;1.73;;;0.68;;
75207;SDS011;63795;55.684;37.864;2023-07-13T01:39:54;2.00;;;0.55;;
75207;SDS011;63795;55.684;37.864;2023-07-13T01:44:54;4.75;;;0.32;;
75207;SDS011;63795;55.684;37.864;2023-07-13T01:49:55;3.57;;;0.33;;
75207;SDS011;63795;55.684;37.864;2023-07-13T01:54:55;1.80;;;0.93;;
75207;SDS011;63795;55.684;37.864;2023-07-13T01:59:55;1.73;;;0.80;;
75207;SDS011;63795;55.684;37.864;2023-07-13T02:04:56;1.17;;;0.20;;
75207;SDS011;63795;55.684;37.864;2023-07-13T02:09:56;1.48;;;0.50;;
75207;SDS011;63795;55.684;37.864;2023-07-13T02:14:57;3.58;;;1.13;;
75207;SDS011;63795;55.684;37.864;2023-07-13T02:19:58;3.17;;;1.25;;
75207;SDS011;63795;55.684;37.864;2023-07-13T02:24:58;1.48;;;0.10;;
75207;SDS011;63795;55.684;37.864;2023-07-13T02:29:59;2.40;;;0.60;;
75207;SDS011;63795;55.684;37.864;2023-07-13T02:34:59;3.45;;;0.35;;
75207;SDS011;63795;55.684;37.864;2023-07-13T02:40:00;1.13;;;0.57;;
75207;SDS011;63795;55.684;37.864;2023-07-13T02:45:00;4.55;;;1.00;;
75207;SDS011;63795;55.684;37.864;2023-07-13T02:50:01;4.63;;;0.75;;
75207;SDS011;63795;55.684;37.864;2023-07-13T02:55:02;1.75;;;0.13;;
75207;SDS011;63795;55.684;37.864;2023-07-13T03:00:03;7.72;;;1.17;;
75207;SDS011;63795;55.684;37.864;2023-07-13T03:05:07;2.65;;;0.55;;
75207;SDS011;63795;55.684;37.864;2023-07-13T03:10:12;3.63;;;0.75;;
75207;SDS011;63795;55.684;37.864;2023-07-13T03:15:13;2.75;;;0.60;;
75207;SDS011;63795;55.684;37.864;2023-07-13T03:20:13;4.80;;;0.63;;
75207;SDS011;63795;55.684;37.864;2023-07-13T03:25:14;2.33;;;0.20;;
75207;SDS011;63795;55.684;37.864;2023-07-13T03:30:14;5.30;;;0.50;;
75207;SDS011;63795;55.684;37.864;2023-07-13T03:35:16;2.85;;;0.40;;
75207;SDS011;63795;55.684;37.864;2023-07-13T03:40:17;1.95;;;0.63;;
75207;SDS011;63795;55.684;37.864;2023-07-13T03:45:18;3.42;;;1.58;;
75207;SDS011;63795;55.684;37.864;2023-07-13T03:50:19;2.22;;;0.75;;
75207;SDS011;63795;55.684;37.864;2023-07-13T03:55:19;2.05;;;0.50;;
75207;SDS011;63795;55.684;37.864;2023-07-13T04:00:19;1.93;;;0.40;;
75207;SDS011;63795;55.684;37.864;2023-07-13T04:05:20;1.35;;;0.52;;
75207;SDS011;63795;55.684;37.864;2023-07-13T04:10:21;5.30;;;0.65;;
75207;SDS011;63795;55.684;37.864;2023-07-13T04:15:21;4.10;;;0.38;;
75207;SDS011;63795;55.684;37.864;2023-07-13T04:20:21;4.77;;;1.40;;
75207;SDS011;63795;55.684;37.864;2023-07-13T04:25:22;4.63;;;0.65;;
75207;SDS011;63795;55.684;37.864;2023-07-13T04:30:23;3.28;;;1.45;;
75207;SDS011;63795;55.684;37.864;2023-07-13T04:35:23;3.20;;;0.80;;
75207;SDS011;63795;55.684;37.864;2023-07-13T04:40:24;4.40;;;0.73;;
75207;SDS011;63795;55.684;37.864;2023-07-13T04:45:27;5.18;;;1.50;;
75207;SDS011;63795;55.684;37.864;2023-07-13T04:50:27;3.57;;;1.30;;
75207;SDS011;63795;55.684;37.864;2023-07-13T04:55:28;2.55;;;1.80;;
75207;SDS011;63795;55.684;37.864;2023-07-13T05:00:30;4.13;;;0.82;;
75207;SDS011;63795;55.684;37.864;2023-07-13T05:05:31;3.63;;;0.30;;
75207;SDS011;63795;55.684;37.864;2023-07-13T05:10:32;2.75;;;1.30;;
75207;SDS011;63795;55.684;37.864;2023-07-13T05:15:32;1.70;;;0.93;;
75207;SDS011;63795;55.684;37.864;2023-07-13T05:20:34;4.88;;;1.08;;
75207;SDS011;63795;55.684;37.864;2023-07-13T05:25:34;2.33;;;1.30;;
75207;SDS011;63795;55.684;37.864;2023-07-13T05:30:34;3.83;;;1.30;;
75207;SDS011;63795;55.684;37.864;2023-07-13T05:35:35;2.90;;;0.70;;
75207;SDS011;63795;55.684;37.864;2023-07-13T05:40:36;3.20;;;0.70;;
75207;SDS011;63795;55.684;37.864;2023-07-13T05:45:36;2.07;;;0.23;;
75207;SDS011;63795;55.684;37.864;2023-07-13T05:50:37;2.92;;;1.20;;
75207;SDS011;63795;55.684;37.864;2023-07-13T05:55:40;3.23;;;0.50;;
75207;SDS011;63795;55.684;37.864;2023-07-13T06:00:45;1.67;;;0.68;;
75207;SDS011;63795;55.684;37.864;2023-07-13T06:05:46;3.25;;;1.33;;
75207;SDS011;63795;55.684;37.864;2023-07-13T06:10:46;2.13;;;1.37;;
75207;SDS011;63795;55.684;37.864;2023-07-13T06:15:50;4.65;;;0.68;;
75207;SDS011;63795;55.684;37.864;2023-07-13T06:20:50;2.20;;;0.50;;
75207;SDS011;63795;55.684;37.864;2023-07-13T06:25:51;1.90;;;0.32;;
75207;SDS011;63795;55.684;37.864;2023-07-13T06:30:51;6.07;;;0.98;;
75207;SDS011;63795;55.684;37.864;2023-07-13T06:35:52;2.15;;;0.73;;
75207;SDS011;63795;55.684;37.864;2023-07-13T06:40:54;3.22;;;1.48;;
75207;SDS011;63795;55.684;37.864;2023-07-13T06:45:55;4.10;;;1.20;;
75207;SDS011;63795;55.684;37.864;2023-07-13T06:50:56;2.35;;;0.60;;
75207;SDS011;63795;55.684;37.864;2023-07-13T06:55:57;7.70;;;1.15;;
75207;SDS011;63795;55.684;37.864;2023-07-13T07:00:57;1.85;;;0.95;;
75207;SDS011;63795;55.684;37.864;2023-07-13T07:06:01;4.63;;;0.40;;
75207;SDS011;63795;55.684;37.864;2023-07-13T07:11:25;3.05;;;0.47;;
75207;SDS011;63795;55.684;37.864;2023-07-13T07:16:26;3.67;;;0.70;;
75207;SDS011;63795;55.684;37.864;2023-07-13T07:21:26;6.25;;;1.48;;
75207;SDS011;63795;55.684;37.864;2023-07-13T07:26:27;6.82;;;0.70;;
75207;SDS011;63795;55.684;37.864;2023-07-13T07:31:28;2.03;;;0.52;;
75207;SDS011;63795;55.684;37.864;2023-07-13T07:36:28;5.63;;;0.60;;
75207;SDS011;63795;55.684;37.864;2023-07-13T07:41:29;2.00;;;0.40;;
75207;SDS011;63795;55.684;37.864;2023-07-13T07:46:29;3.17;;;0.43;;
75207;SDS011;63795;55.684;37.864;2023-07-13T07:51:30;4.40;;;0.50;;
75207;SDS011;63795;55.684;37.864;2023-07-13T07:56:31;4.05;;;1.27;;
75207;SDS011;63795;55.684;37.864;2023-07-13T08:01:32;2.40;;;1.48;;
75207;SDS011;63795;55.684;37.864;2023-07-13T08:06:32;2.25;;;0.98;;
75207;SDS011;63795;55.684;37.864;2023-07-13T08:11:33;5.07;;;1.52;;
75207;SDS011;63795;55.684;37.864;2023-07-13T08:16:34;3.97;;;0.90;;
75207;SDS011;63795;55.684;37.864;2023-07-13T08:21:34;3.67;;;1.42;;
75207;SDS011;63795;55.684;37.864;2023-07-13T08:26:35;7.25;;;1.77;;
75207;SDS011;63795;55.684;37.864;2023-07-13T08:31:36;4.07;;;0.80;;
75207;SDS011;63795;55.684;37.864;2023-07-13T08:36:36;3.53;;;0.68;;
75207;SDS011;63795;55.684;37.864;2023-07-13T08:41:37;2.70;;;0.65;;
75207;SDS011;63795;55.684;37.864;2023-07-13T08:46:38;4.10;;;0.85;;
75207;SDS011;63795;55.684;37.864;2023-07-13T08:56:59;6.30;;;1.02;;
75207;SDS011;63795;55.684;37.864;2023-07-13T09:17:14;4.60;;;0.95;;
75207;SDS011;63795;55.684;37.864;2023-07-13T09:27:26;3.67;;;0.73;;
75207;SDS011;63795;55.684;37.864;2023-07-13T09:32:30;5.18;;;1.15;;
75207;SDS011;63795;55.684;37.864;2023-07-13T09:37:32;2.25;;;0.90;;
75207;SDS011;63795;55.684;37.864;2023-07-13T09:42:33;1.70;;;0.70;;
75207;SDS011;63795;55.684;37.864;2023-07-13T09:47:38;3.45;;;1.35;;
75207;SDS011;63795;55.684;37.864;2023-07-13T09:52:47;2.88;;;1.17;;
75207;SDS011;63795;55.684;37.864;2023-07-13T09:57:49;5.45;;;1.50;;
75207;SDS011;63795;55.684;37.864;2023-07-13T10:13:20;2.67;;;1.00;;
75207;SDS011;63795;55.684;37.864;2023-07-13T10:18:42;3.83;;;1.27;;
75207;SDS011;63795;55.684;37.864;2023-07-13T10:23:50;4.22;;;2.40;;
75207;SDS011;63795;55.684;37.864;2023-07-13T10:28:56;3.28;;;0.35;;
75207;SDS011;63795;55.684;37.864;2023-07-13T10:33:59;3.38;;;1.15;;
75207;SDS011;63795;55.684;37.864;2023-07-13T10:39:00;4.60;;;0.63;;
75207;SDS011;63795;55.684;37.864;2023-07-13T10:44:04;7.10;;;1.95;;
75207;SDS011;63795;55.684;37.864;2023-07-13T10:49:12;8.07;;;1.25;;
75207;SDS011;63795;55.684;37.864;2023-07-13T10:54:17;2.75;;;0.73;;
75207;SDS011;63795;55.684;37.864;2023-07-13T10:59:20;3.80;;;1.30;;
75207;SDS011;63795;55.684;37.864;2023-07-13T11:04:26;4.78;;;1.58;;
75207;SDS011;63795;55.684;37.864;2023-07-13T11:14:44;3.72;;;0.52;;
75207;SDS011;63795;55.684;37.864;2023-07-13T11:25:31;4.85;;;2.35;;
75207;SDS011;63795;55.684;37.864;2023-07-13T11:35:51;4.45;;;1.08;;
75207;SDS011;63795;55.684;37.864;2023-07-13T11:46:22;3.65;;;1.67;;
75207;SDS011;63795;55.684;37.864;2023-07-13T11:51:30;7.00;;;1.65;;
75207;SDS011;63795;55.684;37.864;2023-07-13T11:56:33;2.60;;;1.25;;
75207;SDS011;63795;55.684;37.864;2023-07-13T12:01:34;2.40;;;0.63;;
75207;SDS011;63795;55.684;37.864;2023-07-13T12:06:42;3.03;;;0.60;;
75207;SDS011;63795;55.684;37.864;2023-07-13T12:11:43;6.68;;;1.95;;
75207;SDS011;63795;55.684;37.864;2023-07-13T12:16:44;4.50;;;1.90;;
75207;SDS011;63795;55.684;37.864;2023-07-13T12:21:46;5.50;;;1.30;;
75207;SDS011;63795;55.684;37.864;2023-07-13T12:27:00;5.10;;;1.10;;
75207;SDS011;63795;55.684;37.864;2023-07-13T12:32:02;4.90;;;1.02;;
75207;SDS011;63795;55.684;37.864;2023-07-13T12:37:09;4.47;;;1.23;;
75207;SDS011;63795;55.684;37.864;2023-07-13T12:42:20;2.88;;;0.85;;
75207;SDS011;63795;55.684;37.864;2023-07-13T12:47:28;4.60;;;1.73;;
75207;SDS011;63795;55.684;37.864;2023-07-13T12:52:30;5.95;;;1.48;;
75207;SDS011;63795;55.684;37.864;2023-07-13T12:57:38;3.05;;;0.75;;
75207;SDS011;63795;55.684;37.864;2023-07-13T13:02:40;4.57;;;1.98;;
75207;SDS011;63795;55.684;37.864;2023-07-13T13:07:40;6.47;;;0.57;;
75207;SDS011;63795;55.684;37.864;2023-07-13T13:12:41;4.05;;;0.88;;
75207;SDS011;63795;55.684;37.864;2023-07-13T13:17:44;4.38;;;1.17;;
75207;SDS011;63795;55.684;37.864;2023-07-13T13:22:45;7.50;;;1.63;;
75207;SDS011;63795;55.684;37.864;2023-07-13T13:27:46;2.75;;;0.73;;
75207;SDS011;63795;55.684;37.864;2023-07-13T13:32:47;4.43;;;2.30;;
75207;SDS011;63795;55.684;37.864;2023-07-13T13:37:48;3.30;;;0.95;;
75207;SDS011;63795;55.684;37.864;2023-07-13T13:42:50;5.07;;;0.73;;
75207;SDS011;63795;55.684;37.864;2023-07-13T13:47:52;8.32;;;1.58;;
75207;SDS011;63795;55.684;37.864;2023-07-13T13:52:54;4.32;;;1.15;;
75207;SDS011;63795;55.684;37.864;2023-07-13T13:57:55;5.90;;;0.80;;
75207;SDS011;63795;55.684;37.864;2023-07-13T14:02:55;5.63;;;1.30;;
75207;SDS011;63795;55.684;37.864;2023-07-13T14:07:57;3.67;;;1.45;;
75207;SDS011;63795;55.684;37.864;2023-07-13T14:12:58;5.22;;;1.38;;
75207;SDS011;63795;55.684;37.864;2023-07-13T14:17:58;5.57;;;1.15;;
75207;SDS011;63795;55.684;37.864;2023-07-13T14:22:59;4.68;;;1.23;;
75207;SDS011;63795;55.684;37.864;2023-07-13T14:28:00;4.67;;;1.30;;
75207;SDS011;63795;55.684;37.864;2023-07-13T14:33:13;5.68;;;1.90;;
75207;SDS011;63795;55.684;37.864;2023-07-13T14:38:16;3.33;;;2.25;;
75207;SDS011;63795;55.684;37.864;2023-07-13T14:43:19;3.72;;;0.90;;
75207;SDS011;63795;55.684;37.864;2023-07-13T14:48:21;4.75;;;1.80;;
75207;SDS011;63795;55.684;37.864;2023-07-13T14:53:25;6.78;;;1.98;;
75207;SDS011;63795;55.684;37.864;2023-07-13T14:58:29;4.40;;;0.85;;
75207;SDS011;63795;55.684;37.864;2023-07-13T15:03:32;6.32;;;1.65;;
75207;SDS011;63795;55.684;37.864;2023-07-13T15:08:33;5.32;;;1.90;;
75207;SDS011;63795;55.684;37.864;2023-07-13T15:13:34;4.53;;;2.67;;
75207;SDS011;63795;55.684;37.864;2023-07-13T15:18:35;4.90;;;1.55;;
75207;SDS011;63795;55.684;37.864;2023-07-13T15:23:40;7.55;;;1.73;;
75207;SDS011;63795;55.684;37.864;2023-07-13T15:28:44;5.13;;;1.90;;
75207;SDS011;63795;55.684;37.864;2023-07-13T15:33:46;6.38;;;1.30;;
75207;SDS011;63795;55.684;37.864;2023-07-13T15:38:50;8.10;;;1.75;;
75207;SDS011;63795;55.684;37.864;2023-07-13T15:43:53;4.13;;;2.28;;
75207;SDS011;63795;55.684;37.864;2023-07-13T15:48:56;2.67;;;0.43;;
75207;SDS011;63795;55.684;37.864;2023-07-13T15:54:02;5.50;;;1.15;;
75207;SDS011;63795;55.684;37.864;2023-07-13T15:59:05;3.75;;;1.02;;
75207;SDS011;63795;55.684;37.864;2023-07-13T16:04:06;7.72;;;3.75;;
75207;SDS011;63795;55.684;37.864;2023-07-13T16:09:08;5.22;;;1.80;;
75207;SDS011;63795;55.684;37.864;2023-07-13T16:14:14;4.15;;;1.38;;
75207;SDS011;63795;55.684;37.864;2023-07-13T16:19:15;4.85;;;1.33;;
75207;SDS011;63795;55.684;37.864;2023-07-13T16:24:18;7.00;;;2.75;;
75207;SDS011;63795;55.684;37.864;2023-07-13T16:29:25;8.27;;;2.00;;
75207;SDS011;63795;55.684;37.864;2023-07-13T16:34:27;6.05;;;0.80;;
75207;SDS011;63795;55.684;37.864;2023-07-13T16:39:28;4.82;;;1.42;;
75207;SDS011;63795;55.684;37.864;2023-07-13T16:44:29;7.53;;;1.92;;
75207;SDS011;63795;55.684;37.864;2023-07-13T16:49:33;4.18;;;1.20;;
75207;SDS011;63795;55.684;37.864;2023-07-13T16:54:37;6.55;;;1.60;;
75207;SDS011;63795;55.684;37.864;2023-07-13T16:59:39;6.13;;;1.70;;
75207;SDS011;63795;55.684;37.864;2023-07-13T17:04:39;5.80;;;1.85;;
75207;SDS011;63795;55.684;37.864;2023-07-13T17:09:41;3.88;;;1.10;;
75207;SDS011;63795;55.684;37.864;2023-07-13T17:14:45;7.05;;;2.00;;
75207;SDS011;63795;55.684;37.864;2023-07-13T17:19:50;7.40;;;2.28;;
75207;SDS011;63795;55.684;37.864;2023-07-13T17:24:52;6.38;;;2.47;;
75207;SDS011;63795;55.684;37.864;2023-07-13T17:29:52;6.28;;;1.38;;
75207;SDS011;63795;55.684;37.864;2023-07-13T17:34:54;5.68;;;1.10;;
75207;SDS011;63795;55.684;37.864;2023-07-13T17:39:54;6.97;;;2.20;;
75207;SDS011;63795;55.684;37.864;2023-07-13T17:44:55;6.40;;;2.33;;
75207;SDS011;63795;55.684;37.864;2023-07-13T17:49:55;5.50;;;1.93;;
75207;SDS011;63795;55.684;37.864;2023-07-13T17:54:56;7.22;;;3.45;;
75207;SDS011;63795;55.684;37.864;2023-07-13T18:00:02;6.53;;;4.22;;
75207;SDS011;63795;55.684;37.864;2023-07-13T18:05:17;9.93;;;1.83;;
75207;SDS011;63795;55.684;37.864;2023-07-13T18:10:19;7.18;;;2.40;;
75207;SDS011;63795;55.684;37.864;2023-07-13T18:15:23;6.30;;;1.83;;
75207;SDS011;63795;55.684;37.864;2023-07-13T18:20:27;7.68;;;2.58;;
75207;SDS011;63795;55.684;37.864;2023-07-13T18:25:27;6.90;;;2.80;;
75207;SDS011;63795;55.684;37.864;2023-07-13T18:30:28;7.20;;;3.67;;
75207;SDS011;63795;55.684;37.864;2023-07-13T18:35:30;5.05;;;2.10;;
75207;SDS011;63795;55.684;37.864;2023-07-13T18:40:33;10.00;;;3.03;;
75207;SDS011;63795;55.684;37.864;2023-07-13T18:45:34;6.90;;;2.20;;
75207;SDS011;63795;55.684;37.864;2023-07-13T18:50:34;11.52;;;3.65;;
75207;SDS011;63795;55.684;37.864;2023-07-13T18:55:42;10.45;;;3.80;;
75207;SDS011;63795;55.684;37.864;2023-07-13T19:00:47;9.80;;;4.80;;
75207;SDS011;63795;55.684;37.864;2023-07-13T19:05:50;16.38;;;8.15;;
75207;SDS011;63795;55.684;37.864;2023-07-13T19:10:51;9.32;;;3.55;;
75207;SDS011;63795;55.684;37.864;2023-07-13T19:20:55;11.70;;;4.80;;
75207;SDS011;63795;55.684;37.864;2023-07-13T19:26:02;10.25;;;3.70;;
75207;SDS011;63795;55.684;37.864;2023-07-13T19:31:05;9.23;;;3.78;;
75207;SDS011;63795;55.684;37.864;2023-07-13T19:36:18;7.25;;;2.92;;
75207;SDS011;63795;55.684;37.864;2023-07-13T19:41:21;5.13;;;2.80;;
75207;SDS011;63795;55.684;37.864;2023-07-13T19:46:27;6.75;;;1.73;;
75207;SDS011;63795;55.684;37.864;2023-07-13T19:51:32;8.00;;;2.45;;
75207;SDS011;63795;55.684;37.864;2023-07-13T19:56:33;5.28;;;3.38;;
75207;SDS011;63795;55.684;37.864;2023-07-13T20:01:34;10.70;;;2.83;;
75207;SDS011;63795;55.684;37.864;2023-07-13T20:06:35;15.00;;;4.00;;
75207;SDS011;63795;55.684;37.864;2023-07-13T20:11:37;7.07;;;2.30;;
75207;SDS011;63795;55.684;37.864;2023-07-13T20:16:38;6.32;;;2.20;;
75207;SDS011;63795;55.684;37.864;2023-07-13T20:21:38;6.55;;;3.30;;
75207;SDS011;63795;55.684;37.864;2023-07-13T20:26:38;6.38;;;2.97;;
75207;SDS011;63795;55.684;37.864;2023-07-13T20:31:39;7.10;;;3.70;;
75207;SDS011;63795;55.684;37.864;2023-07-13T20:36:41;7.05;;;1.98;;
75207;SDS011;63795;55.684;37.864;2023-07-13T20:41:41;6.07;;;2.28;;
75207;SDS011;63795;55.684;37.864;2023-07-13T20:46:42;5.85;;;2.10;;
75207;SDS011;63795;55.684;37.864;2023-07-13T20:51:43;6.07;;;2.30;;
75207;SDS011;63795;55.684;37.864;2023-07-13T20:56:50;6.78;;;1.60;;
75207;SDS011;63795;55.684;37.864;2023-07-13T21:01:51;5.13;;;1.95;;
75207;SDS011;63795;55.684;37.864;2023-07-13T21:06:51;4.90;;;1.60;;
75207;SDS011;63795;55.684;37.864;2023-07-13T21:11:52;4.35;;;1.17;;
75207;SDS011;63795;55.684;37.864;2023-07-13T21:16:52;5.90;;;2.78;;
75207;SDS011;63795;55.684;37.864;2023-07-13T21:21:53;4.68;;;1.10;;
75207;SDS011;63795;55.684;37.864;2023-07-13T21:26:53;6.43;;;1.30;;
75207;SDS011;63795;55.684;37.864;2023-07-13T21:31:54;16.57;;;1.80;;
75207;SDS011;63795;55.684;37.864;2023-07-13T21:36:54;5.75;;;1.27;;
75207;SDS011;63795;55.684;37.864;2023-07-13T21:41:58;3.33;;;0.82;;
75207;SDS011;63795;55.684;37.864;2023-07-13T21:47:01;7.32;;;0.98;;
75207;SDS011;63795;55.684;37.864;2023-07-13T21:52:02;6.32;;;1.90;;
75207;SDS011;63795;55.684;37.864;2023-07-13T21:57:14;5.28;;;2.83;;
75207;SDS011;63795;55.684;37.864;2023-07-13T22:02:16;5.90;;;1.50;;
75207;SDS011;63795;55.684;37.864;2023-07-13T22:07:16;3.80;;;1.20;;
75207;SDS011;63795;55.684;37.864;2023-07-13T22:12:16;4.38;;;1.08;;
75207;SDS011;63795;55.684;37.864;2023-07-13T22:17:17;6.90;;;1.00;;
75207;SDS011;63795;55.684;37.864;2023-07-13T22:22:17;4.38;;;1.13;;
75207;SDS011;63795;55.684;37.864;2023-07-13T22:27:18;6.10;;;1.33;;
75207;SDS011;63795;55.684;37.864;2023-07-13T22:32:18;3.03;;;0.73;;
75207;SDS011;63795;55.684;37.864;2023-07-13T22:37:19;2.53;;;0.68;;
75207;SDS011;63795;55.684;37.864;2023-07-13T22:42:19;3.17;;;1.10;;
75207;SDS011;63795;55.684;37.864;2023-07-13T22:47:20;6.40;;;2.30;;
75207;SDS011;63795;55.684;37.864;2023-07-13T22:52:21;5.13;;;1.33;;
75207;SDS011;63795;55.684;37.864;2023-07-13T22:57:22;8.00;;;1.67;;
75207;SDS011;63795;55.684;37.864;2023-07-13T23:02:24;5.40;;;1.95;;
75207;SDS011;63795;55.684;37.864;2023-07-13T23:07:25;4.72;;;1.15;;
75207;SDS011;63795;55.684;37.864;2023-07-13T23:12:26;5.05;;;1.83;;
75207;SDS011;63795;55.684;37.864;2023-07-13T23:17:30;6.97;;;1.17;;
75207;SDS011;63795;55.684;37.864;2023-07-13T23:22:30;4.68;;;1.13;;
75207;SDS011;63795;55.684;37.864;2023-07-13T23:27:31;5.30;;;1.63;;
75207;SDS011;63795;55.684;37.864;2023-07-13T23:32:31;9.10;;;2.07;;
75207;SDS011;63795;55.684;37.864;2023-07-13T23:37:32;6.22;;;1.83;;
75207;SDS011;63795;55.684;37.864;2023-07-13T23:42:32;5.32;;;1.77;;
75207;SDS011;63795;55.684;37.864;2023-07-13T23:47:33;4.20;;;1.97;;
75207;SDS011;63795;55.684;37.864;2023-07-13T23:52:34;5.22;;;1.48;;
75207;SDS011;63795;55.684;37.864;2023-07-13T23:57:34;4.27;;;1.47;;
